Terminal Aerodrome Forecast
Issued by NWS

Current Version | Previous Version | Graphics & Text | Print | Product List | Glossary On
Versions: 1 2 3 4 5 6 7 8 9 10 11 12 13 14 15 16 17 18 19 20 21 22 23 24 25 26 27 28 29 30 31 32 33 34 35 36
000
FTUS41 KRNK 182321
TAFLWB
TAF
KLWB 182321Z 1900/1924 27004KT P6SM SCT030 OVC060
     FM190200 28004KT P6SM OVC025
      TEMPO 1902/1906 4SM -SHRA OVC015
     FM190600 26004KT P6SM VCSH OVC018
     FM190800 27004KT P6SM OVC025
     FM191500 29005KT P6SM BKN040
     FM192300 VRB03KT P6SM SCT100=

USA.gov is the U.S. government's official web portal to all federal, state and local government web resources and services.